Time;durP1;ratioP1;P1;durP2;ratioP2;P2;SDS_P1;SDS_P2;PMS_P1;PMS_P2;Temp;Humidity;BMP_temperature;BMP_pressure;BME280_temperature;BME280_humidity;BME280_pressure;Samples;Min_cycle;Max_cycle;Signal;HPM_P1;HPM_P2
2023/12/24 00:01:30;;;;;;;1.63;0.70;;;13.20;99.90;;;;;;4992720;28;20691;-73
2023/12/24 00:03:55;;;;;;;2.70;0.73;;;13.20;99.90;;;;;;5010342;28;20182;-73
2023/12/24 00:06:21;;;;;;;2.97;0.90;;;13.20;99.90;;;;;;4987412;28;20699;-74
2023/12/24 00:08:47;;;;;;;3.00;1.10;;;13.20;99.90;;;;;;4993426;28;20526;-73
2023/12/24 00:11:12;;;;;;;3.83;1.17;;;13.20;99.90;;;;;;5018072;28;20178;-72
2023/12/24 00:13:38;;;;;;;2.80;1.30;;;13.20;99.90;;;;;;4993708;28;20225;-72
2023/12/24 00:16:04;;;;;;;3.60;1.00;;;13.20;99.90;;;;;;4976787;28;20192;-72
2023/12/24 00:18:29;;;;;;;3.00;1.03;;;13.20;99.90;;;;;;5008737;28;20190;-73
2023/12/24 00:20:55;;;;;;;2.30;0.73;;;13.20;99.90;;;;;;5002937;28;20597;-72
2023/12/24 00:23:21;;;;;;;1.40;0.60;;;13.20;99.90;;;;;;4992335;28;20891;-73
2023/12/24 00:25:47;;;;;;;1.47;0.70;;;13.20;99.90;;;;;;4992979;28;20740;-73
2023/12/24 00:28:12;;;;;;;1.60;0.60;;;13.20;99.90;;;;;;5010962;28;20238;-73
2023/12/24 00:30:38;;;;;;;1.53;0.60;;;13.20;99.90;;;;;;4976770;28;20206;-72
2023/12/24 00:33:04;;;;;;;2.50;0.53;;;13.20;99.90;;;;;;4992439;28;20627;-73
2023/12/24 00:35:31;;;;;;;2.60;0.60;;;13.10;99.90;;;;;;5010419;28;20181;-73
2023/12/24 00:37:58;;;;;;;1.77;0.70;;;13.10;99.90;;;;;;4993150;28;20621;-73
2023/12/24 00:40:24;;;;;;;2.23;0.60;;;13.10;99.90;;;;;;4993208;28;20593;-73
2023/12/24 00:42:50;;;;;;;3.10;1.27;;;13.10;99.90;;;;;;4992396;28;20712;-73
2023/12/24 00:45:15;;;;;;;1.40;0.50;;;13.10;99.90;;;;;;4976528;28;21266;-73
2023/12/24 00:47:41;;;;;;;1.90;0.60;;;13.10;99.90;;;;;;4992944;28;20178;-73
2023/12/24 00:50:09;;;;;;;1.50;0.50;;;13.10;99.90;;;;;;4993008;28;20178;-73
2023/12/24 00:52:37;;;;;;;1.40;0.80;;;13.00;99.90;;;;;;4993538;28;20617;-73
2023/12/24 00:55:04;;;;;;;1.30;0.60;;;13.00;99.90;;;;;;5003187;28;20586;-73
2023/12/24 00:57:30;;;;;;;2.87;0.60;;;13.00;99.90;;;;;;4973361;28;20590;-73
2023/12/24 00:59:56;;;;;;;1.30;0.60;;;13.00;99.90;;;;;;4957523;28;20594;-73
2023/12/24 01:02:22;;;;;;;2.00;0.50;;;12.90;99.90;;;;;;4972882;28;20198;-74
2023/12/24 01:04:47;;;;;;;1.80;0.57;;;12.90;99.90;;;;;;4973235;28;20171;-75
2023/12/24 01:07:13;;;;;;;2.50;0.60;;;12.90;99.90;;;;;;4973556;28;20203;-76
2023/12/24 01:09:39;;;;;;;2.30;0.63;;;12.80;99.90;;;;;;4973513;28;20649;-76
2023/12/24 01:12:06;;;;;;;1.97;0.73;;;12.80;99.90;;;;;;4975133;28;20207;-75
2023/12/24 01:14:32;;;;;;;1.63;0.50;;;12.80;99.90;;;;;;4976992;28;20929;-75
2023/12/24 01:16:59;;;;;;;2.30;0.50;;;12.80;99.90;;;;;;4976995;28;20590;-75
2023/12/24 01:19:26;;;;;;;1.13;0.50;;;12.70;99.90;;;;;;4976792;28;20600;-76
2023/12/24 01:21:54;;;;;;;1.25;0.50;;;12.70;99.90;;;;;;4993270;28;20641;-76
2023/12/24 01:24:20;;;;;;;1.60;0.60;;;12.70;99.90;;;;;;4994363;28;20182;-75
2023/12/24 01:26:46;;;;;;;1.60;0.50;;;12.70;99.90;;;;;;4960521;28;20748;-75
2023/12/24 01:29:12;;;;;;;2.40;0.50;;;12.70;99.90;;;;;;4960711;28;20178;-76
2023/12/24 01:31:39;;;;;;;2.23;0.67;;;12.70;99.90;;;;;;4993890;28;20202;-75
2023/12/24 01:34:05;;;;;;;1.50;0.70;;;12.70;99.90;;;;;;4996123;28;20588;-75
2023/12/24 01:36:31;;;;;;;2.23;0.70;;;12.70;99.90;;;;;;4996036;28;20240;-75
2023/12/24 01:38:57;;;;;;;1.50;0.60;;;12.70;99.90;;;;;;4996173;28;20186;-76
2023/12/24 01:41:24;;;;;;;2.80;0.77;;;12.60;99.90;;;;;;4995869;28;20700;-76
2023/12/24 01:43:50;;;;;;;2.30;0.90;;;12.60;99.90;;;;;;4978877;28;20676;-76
2023/12/24 01:46:21;;;;;;;3.00;0.70;;;12.60;99.90;;;;;;5013410;28;20534;-77
2023/12/24 01:48:50;;;;;;;2.17;0.60;;;12.70;99.90;;;;;;4995753;28;20182;-76
2023/12/24 01:51:20;;;;;;;2.00;0.63;;;12.70;99.90;;;;;;4995749;28;20600;-76
2023/12/24 01:53:50;;;;;;;2.23;0.90;;;12.60;99.90;;;;;;4978972;28;20585;-75
2023/12/24 01:56:18;;;;;;;1.17;0.40;;;12.70;99.90;;;;;;4995863;28;20577;-76
2023/12/24 01:58:43;;;;;;;1.80;0.40;;;12.70;99.90;;;;;;4995666;28;20643;-76
2023/12/24 02:01:10;;;;;;;1.77;0.40;;;12.70;99.90;;;;;;4995651;28;21381;-76
2023/12/24 02:03:36;;;;;;;1.27;0.40;;;12.70;99.90;;;;;;4995117;28;20182;-75
2023/12/24 02:06:03;;;;;;;1.10;0.40;;;12.60;99.90;;;;;;4995508;28;20639;-75
2023/12/24 02:08:29;;;;;;;1.10;0.40;;;12.60;99.90;;;;;;5012242;28;20631;-75
2023/12/24 02:11:16;;;;;;;1.43;0.40;;;12.60;99.90;;;;;;5013180;28;20600;-77
2023/12/24 02:13:43;;;;;;;1.10;0.40;;;12.60;99.90;;;;;;4978430;28;20608;-76
2023/12/24 02:16:11;;;;;;;1.83;0.40;;;12.50;99.90;;;;;;5013325;22;20588;-80
2023/12/24 02:18:38;;;;;;;1.07;0.40;;;12.50;99.90;;;;;;5047202;28;20603;-78
2023/12/24 02:21:05;;;;;;;1.80;0.50;;;12.50;99.90;;;;;;5052961;28;20857;-78
2023/12/24 02:23:31;;;;;;;1.10;0.40;;;12.50;99.90;;;;;;5047781;28;20588;-76
2023/12/24 02:26:01;;;;;;;1.00;0.40;;;12.50;99.90;;;;;;5041808;28;20666;-78
2023/12/24 02:28:31;;;;;;;1.07;0.40;;;12.40;99.90;;;;;;5033470;28;20589;-78
2023/12/24 02:31:05;;;;;;;1.20;0.40;;;12.50;99.90;;;;;;5037547;28;20576;-78
2023/12/24 02:33:37;;;;;;;1.00;0.40;;;12.50;99.90;;;;;;5037584;28;20611;-78
2023/12/24 02:36:04;;;;;;;1.10;0.40;;;12.50;99.90;;;;;;5068922;28;20611;-78
2023/12/24 02:38:32;;;;;;;1.37;0.53;;;12.50;99.90;;;;;;5053284;28;20646;-77
2023/12/24 02:40:57;;;;;;;1.30;0.70;;;12.50;99.90;;;;;;5038512;28;20592;-79
2023/12/24 02:43:23;;;;;;;1.50;0.70;;;12.50;99.90;;;;;;5053240;28;20576;-78
2023/12/24 02:45:49;;;;;;;1.20;0.60;;;12.60;99.90;;;;;;5040125;28;20227;-78
2023/12/24 02:48:14;;;;;;;1.20;0.50;;;12.60;99.90;;;;;;5069436;28;20177;-79
2023/12/24 02:50:41;;;;;;;1.57;0.40;;;12.60;99.90;;;;;;5035499;28;20571;-79
2023/12/24 02:53:06;;;;;;;1.20;0.40;;;12.60;99.90;;;;;;5050715;28;20599;-78
2023/12/24 02:55:32;;;;;;;1.10;0.40;;;12.60;99.90;;;;;;5054754;28;20171;-79
2023/12/24 02:57:58;;;;;;;1.00;0.30;;;12.60;99.90;;;;;;5053241;28;20660;-79
2023/12/24 03:00:24;;;;;;;1.20;0.33;;;12.60;99.90;;;;;;5038076;28;20208;-79
2023/12/24 03:02:49;;;;;;;1.10;0.40;;;12.60;99.90;;;;;;5035954;28;20190;-79
2023/12/24 03:05:15;;;;;;;1.00;0.37;;;12.50;99.90;;;;;;5048609;28;20177;-79
2023/12/24 03:07:41;;;;;;;1.10;0.40;;;12.50;99.90;;;;;;5027621;28;20185;-79
2023/12/24 03:10:07;;;;;;;1.10;0.40;;;12.50;99.90;;;;;;5024227;28;20177;-79
2023/12/24 03:12:32;;;;;;;1.10;0.40;;;12.50;99.90;;;;;;5030255;28;20586;-79
2023/12/24 03:14:58;;;;;;;2.33;0.40;;;12.40;99.90;;;;;;5032186;28;21042;-79
2023/12/24 03:17:24;;;;;;;1.00;0.40;;;12.40;99.90;;;;;;5030550;28;20213;-79
2023/12/24 03:19:49;;;;;;;1.10;0.40;;;12.30;99.90;;;;;;5014204;28;20182;-79
2023/12/24 03:22:15;;;;;;;1.40;0.40;;;12.30;99.90;;;;;;5038676;28;20900;-79
2023/12/24 03:24:41;;;;;;;1.30;0.40;;;12.30;99.90;;;;;;5030594;28;20675;-79
2023/12/24 03:27:06;;;;;;;1.87;0.50;;;12.20;99.90;;;;;;5032133;28;20737;-79
2023/12/24 03:29:32;;;;;;;1.00;0.40;;;12.20;99.90;;;;;;5032433;28;20181;-79
2023/12/24 03:31:58;;;;;;;1.00;0.40;;;12.20;99.90;;;;;;5035618;28;20170;-79
2023/12/24 03:34:23;;;;;;;1.07;0.40;;;12.20;99.90;;;;;;5040470;28;20236;-79
2023/12/24 03:36:49;;;;;;;1.23;0.30;;;12.10;99.90;;;;;;5031109;28;20889;-79
2023/12/24 03:39:15;;;;;;;1.17;0.43;;;12.10;99.90;;;;;;5014808;28;20271;-79
2023/12/24 03:41:41;;;;;;;1.57;0.40;;;12.10;99.90;;;;;;5038685;28;21126;-79
2023/12/24 03:44:07;;;;;;;1.03;0.40;;;12.10;99.90;;;;;;5037336;28;20183;-79
2023/12/24 03:46:32;;;;;;;1.60;0.40;;;12.10;99.90;;;;;;5051305;28;20249;-79
2023/12/24 03:48:58;;;;;;;1.20;0.40;;;12.10;99.90;;;;;;5031312;28;20580;-79
2023/12/24 03:51:24;;;;;;;1.10;0.40;;;12.10;99.90;;;;;;5031424;28;20170;-78
2023/12/24 03:53:51;;;;;;;1.70;0.60;;;12.10;99.90;;;;;;5012756;28;20607;-79
2023/12/24 03:56:16;;;;;;;1.10;0.40;;;12.10;99.90;;;;;;5021283;28;21033;-79
2023/12/24 03:58:42;;;;;;;1.00;0.40;;;12.10;99.90;;;;;;5013062;28;20735;-79
2023/12/24 04:01:11;;;;;;;1.03;0.40;;;12.10;99.90;;;;;;5029369;28;20312;-78
2023/12/24 04:03:37;;;;;;;1.10;0.40;;;12.10;99.90;;;;;;5028978;28;20527;-78
2023/12/24 04:06:13;;;;;;;1.10;0.40;;;12.10;99.90;;;;;;5029378;28;20241;-79
2023/12/24 04:08:39;;;;;;;1.00;0.40;;;12.10;99.90;;;;;;5049214;28;20591;-78
2023/12/24 04:11:11;;;;;;;1.50;0.40;;;12.10;99.90;;;;;;5033623;28;20575;-79
2023/12/24 04:13:37;;;;;;;2.38;0.40;;;12.10;99.90;;;;;;5015367;28;20679;-78
2023/12/24 04:16:03;;;;;;;1.00;0.40;;;12.10;99.90;;;;;;5029037;28;20603;-78
2023/12/24 04:18:29;;;;;;;1.00;0.40;;;12.10;99.90;;;;;;5013036;28;20185;-78
2023/12/24 04:20:54;;;;;;;1.03;0.37;;;12.10;99.90;;;;;;5020975;28;20183;-79
2023/12/24 04:23:20;;;;;;;1.10;0.40;;;12.00;99.90;;;;;;5011830;28;20268;-79
2023/12/24 04:25:46;;;;;;;1.00;0.30;;;12.00;99.90;;;;;;5020791;28;20198;-79
2023/12/24 04:28:11;;;;;;;1.00;0.40;;;12.00;99.90;;;;;;4996341;28;20337;-79
2023/12/24 04:30:37;;;;;;;1.10;0.40;;;12.00;99.90;;;;;;5045630;28;20283;-79
2023/12/24 04:33:03;;;;;;;1.00;0.30;;;12.00;99.90;;;;;;5036423;28;20545;-79
2023/12/24 04:35:29;;;;;;;2.07;0.40;;;12.00;99.90;;;;;;5029284;28;20232;-78
2023/12/24 04:37:56;;;;;;;1.00;0.40;;;12.00;99.90;;;;;;5012190;28;20617;-79
2023/12/24 04:40:23;;;;;;;1.00;0.40;;;12.00;99.90;;;;;;4996311;28;20174;-79
2023/12/24 04:42:48;;;;;;;1.00;0.40;;;12.00;99.90;;;;;;5028301;28;20252;-79
2023/12/24 04:45:14;;;;;;;1.00;0.30;;;12.00;99.90;;;;;;5016371;28;20190;-79
2023/12/24 04:47:40;;;;;;;1.00;0.30;;;12.00;99.90;;;;;;5032815;28;20202;-79
2023/12/24 04:50:06;;;;;;;1.10;0.40;;;12.00;99.90;;;;;;5016527;28;20692;-79
2023/12/24 04:52:35;;;;;;;1.00;0.40;;;12.00;99.90;;;;;;5015691;28;20595;-79
2023/12/24 04:55:05;;;;;;;1.00;0.40;;;12.00;99.90;;;;;;5032747;28;20182;-78
2023/12/24 04:57:31;;;;;;;1.00;0.40;;;12.00;99.90;;;;;;5016225;28;20201;-78
2023/12/24 04:59:57;;;;;;;1.00;0.30;;;12.00;99.90;;;;;;5016173;28;20268;-78
2023/12/24 05:02:23;;;;;;;1.00;0.30;;;12.00;99.90;;;;;;5032235;28;20269;-78
2023/12/24 05:04:49;;;;;;;1.67;0.33;;;12.10;99.90;;;;;;5033948;28;20637;-78
2023/12/24 05:07:16;;;;;;;1.03;0.33;;;12.10;99.90;;;;;;5015817;28;20639;-78
2023/12/24 05:09:42;;;;;;;1.00;0.30;;;12.10;99.90;;;;;;5024134;28;20979;-78
2023/12/24 05:12:08;;;;;;;1.10;0.30;;;12.10;99.90;;;;;;4999210;28;20223;-79
2023/12/24 05:14:35;;;;;;;1.00;0.30;;;12.10;99.90;;;;;;5032651;28;20671;-79
2023/12/24 05:17:02;;;;;;;1.03;0.40;;;12.10;99.90;;;;;;5043539;28;20627;-79
2023/12/24 05:19:28;;;;;;;1.00;0.30;;;12.10;99.90;;;;;;5038659;28;20637;-79
2023/12/24 05:21:54;;;;;;;1.00;0.30;;;12.10;99.90;;;;;;5026689;28;20589;-79
2023/12/24 05:24:20;;;;;;;1.55;0.40;;;12.10;99.90;;;;;;5034298;28;20611;-79
2023/12/24 05:26:46;;;;;;;1.00;0.30;;;12.10;99.90;;;;;;5015349;28;20209;-79
2023/12/24 05:29:12;;;;;;;1.00;0.30;;;12.10;99.90;;;;;;4999393;28;20576;-79
2023/12/24 05:31:41;;;;;;;1.10;0.37;;;12.10;99.90;;;;;;5031499;28;20953;-79
2023/12/24 05:34:08;;;;;;;1.00;0.30;;;12.10;99.90;;;;;;5015564;28;20588;-79
2023/12/24 05:36:35;;;;;;;1.00;0.40;;;12.10;99.90;;;;;;5031718;28;21032;-79
2023/12/24 05:39:01;;;;;;;1.02;0.40;;;12.10;99.90;;;;;;5034988;28;20587;-79
2023/12/24 05:41:27;;;;;;;1.00;0.30;;;12.10;99.90;;;;;;5038344;28;20169;-79
2023/12/24 05:43:53;;;;;;;1.00;0.37;;;12.10;99.90;;;;;;5033086;28;20930;-78
2023/12/24 05:46:20;;;;;;;1.00;0.30;;;12.10;99.90;;;;;;5051567;28;20231;-79
2023/12/24 05:48:45;;;;;;;1.00;0.30;;;12.10;99.90;;;;;;5053071;28;20181;-79
2023/12/24 05:51:11;;;;;;;1.00;0.30;;;12.10;99.90;;;;;;5051698;28;20953;-80
2023/12/24 05:53:37;;;;;;;1.00;0.30;;;12.10;99.90;;;;;;5045131;28;20264;-79
2023/12/24 05:56:03;;;;;;;1.00;0.30;;;12.10;99.90;;;;;;5051614;28;20591;-79
2023/12/24 05:58:29;;;;;;;1.37;0.30;;;12.20;99.90;;;;;;5050364;28;20176;-79
2023/12/24 06:00:55;;;;;;;1.10;0.30;;;12.20;99.90;;;;;;5056053;28;21158;-79
2023/12/24 06:03:20;;;;;;;1.10;0.40;;;12.20;99.90;;;;;;5067870;28;20176;-79
2023/12/24 06:05:46;;;;;;;1.00;0.40;;;12.20;99.90;;;;;;5044299;28;20627;-78
2023/12/24 06:08:17;;;;;;;1.00;0.30;;;12.20;99.90;;;;;;5051369;28;20215;-78
2023/12/24 06:10:43;;;;;;;1.00;0.30;;;12.20;99.90;;;;;;5051528;28;20695;-78
2023/12/24 06:13:10;;;;;;;1.00;0.30;;;12.20;99.90;;;;;;5052183;28;20678;-79
2023/12/24 06:15:36;;;;;;;1.00;0.30;;;12.20;99.90;;;;;;5051434;28;20181;-79
2023/12/24 06:18:02;;;;;;;1.00;0.30;;;12.20;99.90;;;;;;5017593;28;20227;-79
2023/12/24 06:20:32;;;;;;;1.00;0.30;;;12.20;99.90;;;;;;5038477;28;20187;-79
2023/12/24 06:22:58;;;;;;;1.95;0.30;;;12.20;99.90;;;;;;5031769;28;20607;-79
2023/12/24 06:25:23;;;;;;;1.00;0.30;;;12.20;99.90;;;;;;5031129;28;20173;-79
2023/12/24 06:27:49;;;;;;;1.10;0.40;;;12.20;99.90;;;;;;5031390;28;21089;-79
2023/12/24 06:30:15;;;;;;;1.10;0.40;;;12.20;99.90;;;;;;5031077;28;20173;-79
2023/12/24 06:32:49;;;;;;;1.00;0.40;;;12.20;99.90;;;;;;5013789;28;20589;-79
2023/12/24 06:35:16;;;;;;;1.10;0.30;;;12.20;99.90;;;;;;5030862;28;20169;-79
2023/12/24 06:37:42;;;;;;;1.00;0.30;;;12.30;99.90;;;;;;5044704;28;20664;-79
2023/12/24 06:40:08;;;;;;;1.10;0.30;;;12.30;99.90;;;;;;5040545;28;20166;-79
2023/12/24 06:42:33;;;;;;;1.00;0.30;;;12.30;99.90;;;;;;5030095;28;20162;-79
2023/12/24 06:44:59;;;;;;;1.20;0.30;;;12.30;99.90;;;;;;5031910;28;20634;-79
2023/12/24 06:47:25;;;;;;;1.80;0.30;;;12.30;99.90;;;;;;5038884;28;20257;-79
2023/12/24 06:49:50;;;;;;;1.10;0.40;;;12.30;99.90;;;;;;5040048;28;20658;-79
2023/12/24 06:52:16;;;;;;;1.00;0.30;;;12.30;99.90;;;;;;5030034;28;20678;-79
2023/12/24 06:54:42;;;;;;;1.00;0.30;;;12.40;99.90;;;;;;5030782;28;20170;-79
2023/12/24 06:57:08;;;;;;;1.00;0.30;;;12.40;99.90;;;;;;5033532;28;20207;-79
2023/12/24 06:59:34;;;;;;;1.00;0.40;;;12.40;99.90;;;;;;5035210;28;20208;-79
2023/12/24 07:02:01;;;;;;;1.00;0.30;;;12.40;99.90;;;;;;5047748;28;20903;-79
2023/12/24 07:04:26;;;;;;;1.00;0.40;;;12.50;99.90;;;;;;5030264;28;20619;-79
2023/12/24 07:06:52;;;;;;;1.10;0.40;;;12.40;99.90;;;;;;5031398;28;21443;-79
2023/12/24 07:09:18;;;;;;;1.00;0.30;;;12.50;99.90;;;;;;5031275;28;20228;-79
2023/12/24 07:11:44;;;;;;;1.10;0.40;;;12.50;99.90;;;;;;5029790;28;20201;-79
2023/12/24 07:14:10;;;;;;;1.00;0.30;;;12.60;99.90;;;;;;5032975;28;20654;-79
2023/12/24 07:16:36;;;;;;;1.03;0.30;;;12.60;99.90;;;;;;5030217;28;21211;-79
2023/12/24 07:19:07;;;;;;;1.20;0.40;;;12.60;99.90;;;;;;5031550;28;20611;-79
2023/12/24 07:21:33;;;;;;;1.00;0.30;;;12.60;99.90;;;;;;5030102;28;20588;-79
2023/12/24 07:23:59;;;;;;;1.70;0.30;;;12.60;99.90;;;;;;5038959;28;20576;-79
2023/12/24 07:26:24;;;;;;;1.00;0.40;;;12.60;99.90;;;;;;5029934;28;20205;-78
2023/12/24 07:28:51;;;;;;;1.23;0.30;;;12.70;99.90;;;;;;5030109;28;20262;-79
2023/12/24 07:31:16;;;;;;;1.00;0.40;;;12.70;99.90;;;;;;5029970;28;20178;-79
2023/12/24 07:33:42;;;;;;;1.00;0.30;;;12.70;99.90;;;;;;5030701;28;20587;-79
2023/12/24 07:36:08;;;;;;;1.83;0.30;;;12.80;99.90;;;;;;5046707;28;20580;-79
2023/12/24 07:38:34;;;;;;;1.00;0.30;;;12.80;99.90;;;;;;5029908;28;20624;-80
2023/12/24 07:41:00;;;;;;;1.00;0.30;;;12.80;99.90;;;;;;5030925;28;20232;-80
2023/12/24 07:43:27;;;;;;;1.00;0.40;;;12.80;99.90;;;;;;5028837;28;20989;-80
2023/12/24 07:45:53;;;;;;;1.00;0.30;;;12.80;99.90;;;;;;5024240;28;20686;-81
2023/12/24 07:48:19;;;;;;;1.00;0.37;;;12.80;99.90;;;;;;5029727;28;20588;-80
2023/12/24 07:50:46;;;;;;;1.00;0.30;;;12.80;99.90;;;;;;5033129;28;20617;-81
2023/12/24 07:53:11;;;;;;;1.00;0.30;;;12.90;99.90;;;;;;5030623;28;20616;-80
2023/12/24 07:55:37;;;;;;;1.00;0.30;;;12.90;99.90;;;;;;5020963;28;20321;-80
2023/12/24 07:58:03;;;;;;;1.00;0.40;;;12.90;99.90;;;;;;5031723;28;20201;-80
2023/12/24 08:00:29;;;;;;;1.00;0.30;;;12.90;99.90;;;;;;5031510;28;20686;-80
2023/12/24 08:02:54;;;;;;;1.10;0.40;;;13.00;99.90;;;;;;5030326;28;20976;-80
2023/12/24 08:05:20;;;;;;;1.00;0.30;;;13.00;99.90;;;;;;5038708;28;20679;-80
2023/12/24 08:07:46;;;;;;;1.00;0.30;;;13.00;99.90;;;;;;5031537;28;20228;-80
2023/12/24 08:10:11;;;;;;;1.00;0.30;;;13.00;99.90;;;;;;5032655;28;20174;-80
2023/12/24 08:12:37;;;;;;;1.00;0.30;;;13.10;99.90;;;;;;5035130;28;20178;-80
2023/12/24 08:15:04;;;;;;;1.00;0.30;;;13.10;99.90;;;;;;5029434;28;20177;-80
2023/12/24 08:17:30;;;;;;;1.00;0.30;;;13.10;99.90;;;;;;5029420;28;20267;-80
2023/12/24 08:19:56;;;;;;;1.40;0.30;;;13.10;99.90;;;;;;5030478;28;20597;-80
2023/12/24 08:22:22;;;;;;;1.00;0.40;;;13.20;99.90;;;;;;5046894;28;20182;-80
2023/12/24 08:24:48;;;;;;;1.00;0.30;;;13.20;99.90;;;;;;5040507;28;20607;-79
2023/12/24 08:27:13;;;;;;;1.10;0.40;;;13.20;99.90;;;;;;5037650;28;20223;-79
2023/12/24 08:29:39;;;;;;;1.53;0.60;;;13.20;99.90;;;;;;5031376;28;20632;-80
2023/12/24 08:32:05;;;;;;;1.20;0.40;;;13.30;99.90;;;;;;5052872;28;20231;-79
2023/12/24 08:34:32;;;;;;;1.00;0.33;;;13.30;99.90;;;;;;5017991;28;20197;-80
2023/12/24 08:36:58;;;;;;;1.20;0.40;;;13.30;99.90;;;;;;5035894;28;20622;-80
2023/12/24 08:39:24;;;;;;;1.10;0.40;;;13.30;99.90;;;;;;5012723;28;20587;-80
2023/12/24 08:41:50;;;;;;;1.00;0.30;;;13.40;99.90;;;;;;5031368;28;20691;-80
2023/12/24 08:44:16;;;;;;;1.00;0.30;;;13.40;99.90;;;;;;5032339;28;20231;-79
2023/12/24 08:46:45;;;;;;;1.00;0.40;;;13.40;99.90;;;;;;5034149;28;20304;-80
2023/12/24 08:49:11;;;;;;;1.00;0.40;;;13.50;99.90;;;;;;5030411;28;20573;-80
2023/12/24 08:51:37;;;;;;;1.00;0.40;;;13.50;99.90;;;;;;5044327;28;20589;-79
2023/12/24 08:54:03;;;;;;;1.30;0.50;;;13.50;99.90;;;;;;5033096;28;21025;-80
2023/12/24 08:56:34;;;;;;;1.10;0.40;;;13.60;99.90;;;;;;5027367;28;20624;-80
2023/12/24 08:58:59;;;;;;;1.00;0.40;;;13.60;99.90;;;;;;5034536;28;20183;-80
2023/12/24 09:01:25;;;;;;;1.00;0.37;;;13.60;99.90;;;;;;5030449;28;20584;-80
2023/12/24 09:03:51;;;;;;;1.20;0.40;;;13.60;99.90;;;;;;5028725;28;20261;-80
2023/12/24 09:06:16;;;;;;;1.00;0.30;;;13.60;99.90;;;;;;5037045;28;20732;-80
2023/12/24 09:08:42;;;;;;;1.10;0.40;;;13.60;99.90;;;;;;5024045;28;20247;-80
2023/12/24 09:11:08;;;;;;;1.00;0.40;;;13.50;99.90;;;;;;5028632;28;20178;-79
2023/12/24 09:13:33;;;;;;;1.20;0.40;;;13.50;99.90;;;;;;5029444;28;20523;-80
2023/12/24 09:15:59;;;;;;;1.00;0.30;;;13.50;99.90;;;;;;5029955;28;20174;-80
2023/12/24 09:18:24;;;;;;;1.33;0.40;;;13.50;99.90;;;;;;5029974;28;20627;-80
2023/12/24 09:20:51;;;;;;;1.00;0.30;;;13.50;99.90;;;;;;5038161;28;20568;-79
2023/12/24 09:23:17;;;;;;;1.10;0.40;;;13.50;99.90;;;;;;5029136;28;20213;-79
2023/12/24 09:25:43;;;;;;;1.10;0.40;;;13.60;99.90;;;;;;5029687;28;20658;-78
2023/12/24 09:28:08;;;;;;;1.00;0.33;;;13.60;99.90;;;;;;5028363;28;20628;-80
2023/12/24 09:30:34;;;;;;;1.00;0.40;;;13.60;99.90;;;;;;5030011;28;20174;-79
2023/12/24 09:33:00;;;;;;;1.00;0.40;;;13.70;99.90;;;;;;5031667;28;20296;-80
2023/12/24 09:35:27;;;;;;;1.00;0.40;;;13.70;99.90;;;;;;5033504;28;20185;-79
2023/12/24 09:37:53;;;;;;;1.00;0.30;;;13.70;99.90;;;;;;5015571;28;20729;-80
2023/12/24 09:40:18;;;;;;;1.10;0.40;;;13.70;99.90;;;;;;5040256;28;20635;-80
2023/12/24 09:42:44;;;;;;;1.00;0.30;;;13.70;99.90;;;;;;5040602;28;20216;-80
2023/12/24 09:45:10;;;;;;;1.10;0.40;;;13.80;99.90;;;;;;5033270;28;20174;-80
2023/12/24 09:47:36;;;;;;;1.20;0.30;;;13.80;99.90;;;;;;5033144;28;20205;-80
2023/12/24 09:50:03;;;;;;;1.30;0.40;;;13.80;99.90;;;;;;5033102;28;20529;-80
2023/12/24 09:52:29;;;;;;;1.37;0.63;;;13.90;99.90;;;;;;5030749;28;20576;-80
2023/12/24 09:54:55;;;;;;;1.30;0.60;;;13.90;99.90;;;;;;5033864;28;20710;-80
2023/12/24 09:57:21;;;;;;;1.10;0.40;;;13.90;99.90;;;;;;5033115;28;20616;-80
2023/12/24 09:59:47;;;;;;;1.10;0.50;;;14.00;99.90;;;;;;5033298;28;20580;-80
2023/12/24 10:02:13;;;;;;;1.00;0.40;;;14.00;99.90;;;;;;5032283;28;20516;-79
2023/12/24 10:04:39;;;;;;;1.00;0.40;;;14.10;99.90;;;;;;5032836;28;20584;-80
2023/12/24 10:07:06;;;;;;;1.00;0.40;;;14.10;99.90;;;;;;5039350;28;20209;-79
2023/12/24 10:09:45;;;;;;;1.00;0.40;;;14.10;99.90;;;;;;5032877;28;20274;-80
2023/12/24 10:12:11;;;;;;;1.10;0.40;;;14.20;99.90;;;;;;5031862;28;20592;-79
2023/12/24 10:14:38;;;;;;;1.20;0.40;;;14.20;99.90;;;;;;5031321;28;21176;-79
2023/12/24 10:17:05;;;;;;;1.10;0.40;;;14.20;99.90;;;;;;5039408;28;20643;-79
2023/12/24 10:19:31;;;;;;;1.30;0.30;;;14.20;99.90;;;;;;5035835;28;20619;-78
2023/12/24 10:22:05;;;;;;;1.40;0.40;;;14.30;99.90;;;;;;5014059;28;20596;-78
2023/12/24 10:24:32;;;;;;;1.10;0.40;;;14.30;99.90;;;;;;5032657;28;20930;-78
2023/12/24 10:27:10;;;;;;;1.17;0.40;;;14.30;99.90;;;;;;5010531;28;21064;-78
2023/12/24 10:29:37;;;;;;;1.10;0.40;;;14.30;99.90;;;;;;5032143;28;20658;-78
2023/12/24 10:32:03;;;;;;;1.00;0.30;;;14.30;99.90;;;;;;5030216;28;21014;-77
2023/12/24 10:34:30;;;;;;;1.63;0.40;;;14.30;99.90;;;;;;5030920;28;21134;-76
2023/12/24 10:36:58;;;;;;;1.10;0.40;;;14.30;99.90;;;;;;5030420;28;20624;-79
2023/12/24 10:39:24;;;;;;;1.10;0.40;;;14.30;99.90;;;;;;5034332;28;20623;-78
2023/12/24 10:41:56;;;;;;;1.13;0.40;;;14.40;99.90;;;;;;5037852;28;20600;-80
2023/12/24 10:44:23;;;;;;;1.00;0.40;;;14.40;99.90;;;;;;5029724;28;20738;-78
2023/12/24 10:46:49;;;;;;;1.10;0.40;;;14.40;99.90;;;;;;5031986;28;20643;-79
2023/12/24 10:49:14;;;;;;;1.57;0.50;;;14.40;99.90;;;;;;5029201;28;21475;-78
2023/12/24 10:51:40;;;;;;;1.40;0.50;;;14.40;99.90;;;;;;5034473;28;20630;-77
2023/12/24 10:54:07;;;;;;;1.30;0.60;;;14.40;99.90;;;;;;5041690;28;20269;-78
2023/12/24 10:57:03;;;;;;;1.10;0.53;;;14.40;99.90;;;;;;5037048;28;20204;-78
2023/12/24 10:59:37;;;;;;;1.10;0.50;;;14.40;99.90;;;;;;5029768;28;20596;-78
2023/12/24 11:02:04;;;;;;;1.00;0.40;;;14.40;99.90;;;;;;5032465;28;20604;-77
2023/12/24 11:04:42;;;;;;;1.80;0.80;;;14.40;99.90;;;;;;5038680;28;20949;-77
2023/12/24 11:07:08;;;;;;;2.50;1.23;;;14.40;99.90;;;;;;5032873;28;20734;-77
2023/12/24 11:09:42;;;;;;;2.00;1.00;;;14.40;99.90;;;;;;5038172;28;20672;-78
2023/12/24 11:12:08;;;;;;;2.30;1.13;;;14.40;99.90;;;;;;5030975;28;20180;-77
2023/12/24 11:14:41;;;;;;;1.67;0.80;;;14.40;99.90;;;;;;5034935;28;20674;-77
2023/12/24 11:17:30;;;;;;;1.30;0.50;;;14.40;99.90;;;;;;5039514;28;20307;-77
2023/12/24 11:20:25;;;;;;;1.30;0.50;;;14.40;99.90;;;;;;5029134;28;20611;-77
2023/12/24 11:23:06;;;;;;;1.70;0.50;;;14.30;99.90;;;;;;5041099;28;20989;-77
2023/12/24 11:25:46;;;;;;;1.40;0.47;;;14.40;99.90;;;;;;5024143;28;20706;-79
2023/12/24 11:28:35;;;;;;;1.27;0.50;;;14.40;99.90;;;;;;5030083;28;20663;-78
2023/12/24 11:31:03;;;;;;;1.40;0.60;;;14.30;99.90;;;;;;5030790;28;20588;-78
2023/12/24 11:33:28;;;;;;;1.77;0.77;;;14.40;99.90;;;;;;5017045;28;20596;-78
2023/12/24 11:35:56;;;;;;;1.53;0.80;;;14.30;99.90;;;;;;5031064;28;20592;-78
2023/12/24 11:38:33;;;;;;;1.87;1.00;;;14.40;99.90;;;;;;5038771;28;20189;-78
2023/12/24 11:41:20;;;;;;;1.30;0.60;;;14.40;99.90;;;;;;5029707;28;20584;-78
2023/12/24 11:43:55;;;;;;;1.10;0.50;;;14.40;99.90;;;;;;5030255;28;21135;-77
2023/12/24 11:46:22;;;;;;;1.10;0.40;;;14.40;99.90;;;;;;5038824;28;20716;-78
2023/12/24 11:48:48;;;;;;;1.20;0.40;;;14.40;99.90;;;;;;5029402;28;21206;-78
2023/12/24 11:51:14;;;;;;;1.20;0.40;;;14.40;99.90;;;;;;5037329;28;20627;-78
2023/12/24 11:53:40;;;;;;;3.50;0.60;;;14.40;99.90;;;;;;5028984;28;20616;-78
2023/12/24 11:56:16;;;;;;;1.10;0.40;;;14.40;99.90;;;;;;5030234;28;20189;-77
2023/12/24 11:58:48;;;;;;;1.20;0.50;;;14.50;99.90;;;;;;5029399;28;20690;-78
2023/12/24 12:01:19;;;;;;;2.27;0.50;;;14.50;99.90;;;;;;5038524;28;20583;-78
2023/12/24 12:03:45;;;;;;;1.10;0.40;;;14.50;99.90;;;;;;5048476;28;20610;-79
2023/12/24 12:06:10;;;;;;;1.43;0.40;;;14.50;99.90;;;;;;5031056;28;20639;-79
2023/12/24 12:08:36;;;;;;;1.20;0.50;;;14.50;99.90;;;;;;5037060;28;20631;-78
2023/12/24 12:11:02;;;;;;;1.10;0.40;;;14.50;99.90;;;;;;5033489;28;20209;-78
2023/12/24 12:13:28;;;;;;;1.17;0.50;;;14.50;99.90;;;;;;5033157;28;20177;-78
2023/12/24 12:15:54;;;;;;;1.40;0.50;;;14.50;99.90;;;;;;5049931;28;20181;-76
2023/12/24 12:18:20;;;;;;;3.10;0.60;;;14.50;99.90;;;;;;5032300;28;20605;-77
2023/12/24 12:20:46;;;;;;;1.10;0.50;;;14.50;99.90;;;;;;5048842;28;20591;-77
2023/12/24 12:23:16;;;;;;;1.30;0.40;;;14.60;99.90;;;;;;5056034;28;20640;-78
2023/12/24 12:25:43;;;;;;;1.20;0.50;;;14.60;99.90;;;;;;5049982;28;20587;-78
2023/12/24 12:28:09;;;;;;;1.13;0.47;;;14.60;99.90;;;;;;5035561;28;20712;-78
2023/12/24 12:30:35;;;;;;;2.03;0.50;;;14.60;99.90;;;;;;5050125;28;20686;-78
2023/12/24 12:33:01;;;;;;;1.37;0.40;;;14.60;99.90;;;;;;5048233;28;20188;-78
2023/12/24 12:35:27;;;;;;;1.10;0.40;;;14.60;99.90;;;;;;5065640;28;20169;-78
2023/12/24 12:37:52;;;;;;;1.30;0.40;;;14.60;99.90;;;;;;5041114;28;20623;-79
2023/12/24 12:40:18;;;;;;;1.20;0.40;;;14.50;99.90;;;;;;5033713;28;20647;-78
2023/12/24 12:42:44;;;;;;;1.00;0.40;;;14.50;99.90;;;;;;5043677;28;20238;-77
2023/12/24 12:45:10;;;;;;;1.50;0.70;;;14.40;99.90;;;;;;5041235;28;20265;-77
2023/12/24 12:47:36;;;;;;;2.00;1.00;;;14.30;99.90;;;;;;5044693;28;20646;-78